createdAt,value
2023-01-07T00:01:30.785Z,101073.75
2023-01-07T00:03:59.564Z,101071.75
2023-01-07T00:06:33.195Z,101069.78
2023-01-07T00:09:00.359Z,101074.19
2023-01-07T00:11:30.892Z,101067.41
2023-01-07T00:13:59.189Z,101058.19
2023-01-07T00:16:28.445Z,101070.22
2023-01-07T00:18:56.867Z,101074.28
2023-01-07T00:21:24.546Z,101067.88
2023-01-07T00:23:55.816Z,101065.06
2023-01-07T00:26:24.380Z,101063.88
2023-01-07T00:28:51.620Z,101064.34
2023-01-07T00:31:31.214Z,101062.78
2023-01-07T00:33:58.247Z,101060.78
2023-01-07T00:36:34.898Z,101048.69
2023-01-07T00:39:22.960Z,101057.91
2023-01-07T00:42:08.525Z,101062.34
2023-01-07T00:44:35.224Z,101056.75
2023-01-07T00:47:01.793Z,101057.09
2023-01-07T00:49:28.394Z,101054.66
2023-01-07T00:51:54.857Z,101052.25
2023-01-07T00:54:21.257Z,101050.25
2023-01-07T00:56:48.059Z,101055.03
2023-01-07T00:59:15.676Z,101051.44
2023-01-07T01:01:42.336Z,101047.44
2023-01-07T01:04:08.687Z,101048.25
2023-01-07T01:06:35.076Z,101043.47
2023-01-07T01:09:01.644Z,101047.88
2023-01-07T01:11:27.992Z,101033.06
2023-01-07T01:13:54.390Z,101034.69
2023-01-07T01:16:21.001Z,101039.13
2023-01-07T01:18:47.830Z,101034.34
2023-01-07T01:21:16.323Z,101033.53
2023-01-07T01:23:43.123Z,101030.34
2023-01-07T01:26:12.686Z,101028.78
2023-01-07T01:28:39.347Z,101033.59
2023-01-07T01:31:08.412Z,101029.97
2023-01-07T01:33:35.105Z,101030.34
2023-01-07T01:36:06.574Z,101034.34
2023-01-07T01:38:33.112Z,101027.53
2023-01-07T01:40:59.853Z,101032.34
2023-01-07T01:43:34.280Z,101026.34
2023-01-07T01:46:11.145Z,101033.53
2023-01-07T01:48:41.802Z,101031.97
2023-01-07T01:51:10.332Z,101027.53
2023-01-07T01:53:37.007Z,101035.56
2023-01-07T01:56:10.998Z,101038.00
2023-01-07T01:58:43.201Z,101034.75
2023-01-07T02:01:09.966Z,101022.75
2023-01-07T02:03:38.043Z,101023.47
2023-01-07T02:06:05.540Z,101024.28
2023-01-07T02:08:32.407Z,101018.66
2023-01-07T02:11:18.718Z,101013.34
2023-01-07T02:14:09.210Z,101016.97
2023-01-07T02:17:14.821Z,101018.53
2023-01-07T02:19:59.316Z,101010.13
2023-01-07T02:22:41.461Z,101015.72
2023-01-07T02:25:29.292Z,101009.69
2023-01-07T02:28:24.987Z,101006.88
2023-01-07T02:31:06.741Z,101007.69
2023-01-07T02:33:38.160Z,101005.59
2023-01-07T02:36:49.960Z,101007.50
2023-01-07T02:39:58.008Z,100997.88
2023-01-07T02:42:46.453Z,100995.41
2023-01-07T02:45:19.723Z,101003.91
2023-01-07T02:48:02.543Z,100998.22
2023-01-07T02:50:28.968Z,100990.19
2023-01-07T02:52:55.656Z,100993.69
2023-01-07T02:55:37.619Z,100985.59
2023-01-07T02:58:48.599Z,100993.56
2023-01-07T03:01:29.143Z,100984.78
2023-01-07T03:04:13.996Z,100981.88
2023-01-07T03:06:54.767Z,100983.16
2023-01-07T03:09:30.525Z,100981.97
2023-01-07T03:12:29.383Z,100975.56
2023-01-07T03:15:11.446Z,100970.34
2023-01-07T03:18:06.995Z,100979.53
2023-01-07T03:20:36.819Z,100973.22
2023-01-07T03:23:07.903Z,100968.78
2023-01-07T03:25:40.382Z,100964.34
2023-01-07T03:28:09.732Z,100967.97
2023-01-07T03:30:38.526Z,100961.94
2023-01-07T03:33:12.024Z,100965.91
2023-01-07T03:35:42.869Z,100968.72
2023-01-07T03:38:10.344Z,100954.72
2023-01-07T03:40:37.421Z,100951.44
2023-01-07T03:43:04.442Z,100951.44
2023-01-07T03:45:31.053Z,100951.81
2023-01-07T03:47:58.189Z,100954.97
2023-01-07T03:50:24.627Z,100949.38
2023-01-07T03:52:52.995Z,100942.53
2023-01-07T03:55:19.925Z,100942.91
2023-01-07T03:57:46.459Z,100938.44
2023-01-07T04:00:14.090Z,100938.81
2023-01-07T04:02:41.029Z,100928.44
2023-01-07T04:05:07.913Z,100926.81
2023-01-07T04:07:34.265Z,100919.59
2023-01-07T04:10:01.040Z,100921.59
2023-01-07T04:12:27.454Z,100920.41
2023-01-07T04:14:57.307Z,100912.00
2023-01-07T04:17:25.854Z,100911.19
2023-01-07T04:19:52.423Z,100908.41
2023-01-07T04:22:18.963Z,100903.13
2023-01-07T04:24:45.287Z,100896.38
2023-01-07T04:27:11.927Z,100899.19
2023-01-07T04:29:38.485Z,100898.72
2023-01-07T04:32:05.338Z,100894.31
2023-01-07T04:34:31.844Z,100884.66
2023-01-07T04:36:58.245Z,100883.03
2023-01-07T04:39:24.623Z,100881.03
2023-01-07T04:41:51.029Z,100892.22
2023-01-07T04:44:17.738Z,100883.03
2023-01-07T04:46:44.946Z,100884.66
2023-01-07T04:49:11.327Z,100879.88
2023-01-07T04:51:37.874Z,100879.88
2023-01-07T04:54:04.297Z,100882.31
2023-01-07T04:56:30.702Z,100875.50
2023-01-07T04:58:57.206Z,100872.34
2023-01-07T05:01:24.616Z,100879.59
2023-01-07T05:03:51.076Z,100868.38
2023-01-07T05:06:19.030Z,100884.00
2023-01-07T05:08:45.447Z,100884.81
2023-01-07T05:11:12.005Z,100878.84
2023-01-07T05:13:38.353Z,100865.66
2023-01-07T05:16:05.133Z,100868.44
2023-01-07T05:18:31.947Z,100864.50
2023-01-07T05:20:58.307Z,100852.91
2023-01-07T05:23:24.732Z,100848.13
2023-01-07T05:25:51.380Z,100850.91
2023-01-07T05:28:17.779Z,100849.72
2023-01-07T05:30:44.445Z,100849.72
2023-01-07T05:33:10.736Z,100845.75
2023-01-07T05:35:37.341Z,100839.34
2023-01-07T05:38:03.911Z,100844.94
2023-01-07T05:40:30.310Z,100834.91
2023-01-07T05:42:56.931Z,100833.31
2023-01-07T05:45:23.496Z,100828.88
2023-01-07T05:47:49.900Z,100830.88
2023-01-07T05:50:16.679Z,100834.84
2023-01-07T05:52:43.003Z,100830.81
2023-01-07T05:55:09.713Z,100832.78
2023-01-07T05:57:36.068Z,100836.78
2023-01-07T06:00:02.631Z,100828.72
2023-01-07T06:02:28.946Z,100839.50
2023-01-07T06:04:55.484Z,100841.03
2023-01-07T06:07:21.934Z,100837.75
2023-01-07T06:09:48.453Z,100828.09
2023-01-07T06:12:15.000Z,100830.84
2023-01-07T06:14:41.408Z,100822.34
2023-01-07T06:17:07.968Z,100819.47
2023-01-07T06:19:34.325Z,100811.81
2023-01-07T06:22:01.635Z,100808.94
2023-01-07T06:24:28.168Z,100811.66
2023-01-07T06:26:54.548Z,100817.97
2023-01-07T06:29:20.987Z,100807.06
2023-01-07T06:31:47.330Z,100810.59
2023-01-07T06:34:13.673Z,100804.91
2023-01-07T06:36:40.186Z,100797.25
2023-01-07T06:39:07.781Z,100799.59
2023-01-07T06:41:34.466Z,100794.38
2023-01-07T06:44:00.861Z,100801.50
2023-01-07T06:46:27.577Z,100797.47
2023-01-07T06:48:54.311Z,100790.59
2023-01-07T06:51:20.913Z,100788.50
2023-01-07T06:53:47.321Z,100788.88
2023-01-07T06:56:13.714Z,100789.25
2023-01-07T06:58:40.032Z,100789.59
2023-01-07T07:01:07.950Z,100785.56
2023-01-07T07:03:34.517Z,100794.31
2023-01-07T07:06:01.979Z,100790.25
2023-01-07T07:08:28.345Z,100780.25
2023-01-07T07:10:55.248Z,100790.97
2023-01-07T07:13:21.954Z,100782.97
2023-01-07T07:15:49.878Z,100777.75
2023-01-07T07:18:22.097Z,100775.66
2023-01-07T07:20:48.616Z,100771.69
2023-01-07T07:23:15.187Z,100777.28
2023-01-07T07:25:43.748Z,100776.13
2023-01-07T07:28:10.204Z,100778.16
2023-01-07T07:30:45.735Z,100769.50
2023-01-07T07:33:14.831Z,100781.16
2023-01-07T07:35:41.379Z,100776.00
2023-01-07T07:38:07.795Z,100775.28
2023-01-07T07:40:34.370Z,100770.59
2023-01-07T07:43:12.022Z,100776.25
2023-01-07T07:45:39.352Z,100772.34
2023-01-07T07:48:10.259Z,100773.25
2023-01-07T07:50:37.122Z,100770.53
2023-01-07T07:53:04.050Z,100767.44
2023-01-07T07:55:32.183Z,100765.09
2023-01-07T07:57:58.753Z,100765.16
2023-01-07T08:00:25.357Z,100768.06
2023-01-07T08:02:52.775Z,100766.16
2023-01-07T08:05:19.419Z,100762.16
2023-01-07T08:07:45.834Z,100765.38
2023-01-07T08:10:12.341Z,100755.47
2023-01-07T08:12:39.467Z,100758.69
2023-01-07T08:15:08.046Z,100752.75
2023-01-07T08:17:36.467Z,100757.25
2023-01-07T08:20:06.357Z,100758.56
2023-01-07T08:22:33.328Z,100745.91
2023-01-07T08:25:00.050Z,100747.22
2023-01-07T08:27:31.536Z,100750.09
2023-01-07T08:29:57.940Z,100739.78
2023-01-07T08:32:24.242Z,100745.47
2023-01-07T08:34:50.586Z,100739.91
2023-01-07T08:37:17.181Z,100741.97
2023-01-07T08:39:43.581Z,100738.06
2023-01-07T08:42:09.868Z,100736.53
2023-01-07T08:44:36.489Z,100744.16
2023-01-07T08:47:02.864Z,100734.22
2023-01-07T08:49:29.155Z,100735.91
2023-01-07T08:51:55.543Z,100736.34
2023-01-07T08:54:21.942Z,100731.63
2023-01-07T08:56:48.388Z,100732.84
2023-01-07T08:59:14.659Z,100728.50
2023-01-07T09:01:41.457Z,100738.13
2023-01-07T09:04:07.911Z,100732.53
2023-01-07T09:06:34.340Z,100735.78
2023-01-07T09:09:02.677Z,100734.22
2023-01-07T09:11:28.954Z,100722.66
2023-01-07T09:13:55.238Z,100727.50
2023-01-07T09:16:21.554Z,100723.16
2023-01-07T09:18:47.897Z,100723.56
2023-01-07T09:21:14.224Z,100722.03
2023-01-07T09:23:40.667Z,100723.25
2023-01-07T09:26:09.991Z,100722.09
2023-01-07T09:28:36.289Z,100721.72
2023-01-07T09:31:05.605Z,100718.53
2023-01-07T09:33:33.275Z,100707.31
2023-01-07T09:36:00.100Z,100717.34
2023-01-07T09:38:26.511Z,100714.97
2023-01-07T09:40:53.306Z,100707.00
2023-01-07T09:44:00.919Z,100709.78
2023-01-07T09:46:23.373Z,100702.63
2023-01-07T09:48:54.257Z,100705.06
2023-01-07T09:51:23.273Z,100701.88
2023-01-07T09:53:51.727Z,100700.72
2023-01-07T09:56:21.049Z,100703.50
2023-01-07T09:58:48.603Z,100707.13
2023-01-07T10:01:15.285Z,100698.31
2023-01-07T10:03:56.722Z,100700.75
2023-01-07T10:06:43.117Z,100689.53
2023-01-07T10:09:38.356Z,100682.75
2023-01-07T10:12:10.800Z,100697.59
2023-01-07T10:14:40.226Z,100683.91
2023-01-07T10:17:22.175Z,100674.69
2023-01-07T10:20:02.940Z,100671.53
2023-01-07T10:22:32.246Z,100672.34
2023-01-07T10:25:01.468Z,100671.16
2023-01-07T10:27:33.851Z,100669.97
2023-01-07T10:30:05.021Z,100664.00
2023-01-07T10:32:36.457Z,100660.03
2023-01-07T10:35:04.375Z,100656.84
2023-01-07T10:37:32.383Z,100649.22
2023-01-07T10:40:17.837Z,100649.66
2023-01-07T10:42:52.864Z,100638.06
2023-01-07T10:45:38.026Z,100634.06
2023-01-07T10:48:06.766Z,100634.50
2023-01-07T10:50:52.845Z,100626.06
2023-01-07T10:53:22.370Z,100621.72
2023-01-07T10:56:04.564Z,100633.00
2023-01-07T10:58:40.567Z,100618.19
2023-01-07T11:01:07.710Z,100621.84
2023-01-07T11:03:35.297Z,100608.69
2023-01-07T11:06:05.960Z,100607.53
2023-01-07T11:08:36.724Z,100594.72
2023-01-07T11:11:04.957Z,100595.19
2023-01-07T11:13:33.870Z,100585.16
2023-01-07T11:16:10.245Z,100580.00
2023-01-07T11:18:45.972Z,100566.38
2023-01-07T11:21:43.544Z,100569.25
2023-01-07T11:24:01.700Z,100558.88
2023-01-07T11:26:36.866Z,100563.72
2023-01-07T11:29:17.203Z,100549.28
2023-01-07T11:31:48.124Z,100540.94
2023-01-07T11:34:25.196Z,100531.72
2023-01-07T11:36:51.793Z,100517.69
2023-01-07T11:39:19.867Z,100512.91
2023-01-07T11:41:57.270Z,100513.31
2023-01-07T11:44:25.433Z,100501.72
2023-01-07T11:46:52.625Z,100496.50
2023-01-07T11:49:26.493Z,100495.75
2023-01-07T11:51:52.994Z,100498.97
2023-01-07T11:54:21.117Z,100486.53
2023-01-07T11:56:47.513Z,100474.53
2023-01-07T11:59:14.305Z,100476.16
2023-01-07T12:01:45.076Z,100464.56
2023-01-07T12:04:31.652Z,100463.34
2023-01-07T12:07:03.445Z,100459.34
2023-01-07T12:09:32.935Z,100446.91
2023-01-07T12:12:06.325Z,100438.13
2023-01-07T12:14:35.921Z,100433.66
2023-01-07T12:17:15.477Z,100430.06
2023-01-07T12:19:54.087Z,100425.66
2023-01-07T12:22:32.621Z,100405.19
2023-01-07T12:25:20.909Z,100421.22
2023-01-07T12:27:57.542Z,100406.78
2023-01-07T12:30:44.076Z,100406.78
2023-01-07T12:33:10.507Z,100407.22
2023-01-07T12:35:39.175Z,100388.38
2023-01-07T12:38:19.325Z,100386.78
2023-01-07T12:40:55.185Z,100374.72
2023-01-07T12:43:25.899Z,100376.78
2023-01-07T12:45:54.234Z,100373.97
2023-01-07T12:48:27.228Z,100365.97
2023-01-07T12:50:55.477Z,100372.81
2023-01-07T12:53:30.916Z,100366.81
2023-01-07T12:56:00.170Z,100354.78
2023-01-07T12:58:37.314Z,100348.38
2023-01-07T13:01:23.202Z,100359.63
2023-01-07T13:04:05.937Z,100348.75
2023-01-07T13:06:50.319Z,100344.34
2023-01-07T13:09:21.181Z,100325.06
2023-01-07T13:12:41.855Z,100339.50
2023-01-07T13:15:15.108Z,100332.66
2023-01-07T13:17:41.581Z,100331.47
2023-01-07T13:20:15.735Z,100328.22
2023-01-07T13:22:45.763Z,100331.47
2023-01-07T13:25:49.784Z,100335.50
2023-01-07T13:28:31.283Z,100321.88
2023-01-07T13:31:10.122Z,100314.25
2023-01-07T13:33:49.299Z,100316.66
2023-01-07T13:36:21.855Z,100312.25
2023-01-07T13:39:07.991Z,100315.44
2023-01-07T13:41:41.474Z,100313.03
2023-01-07T13:44:16.573Z,100292.97
2023-01-07T13:46:45.692Z,100307.38
2023-01-07T13:49:26.462Z,100310.94
2023-01-07T13:51:53.388Z,100311.75
2023-01-07T13:54:40.745Z,100301.31
2023-01-07T13:57:26.760Z,100292.06
2023-01-07T13:59:54.305Z,100298.44
2023-01-07T14:02:22.151Z,100282.78
2023-01-07T14:04:48.508Z,100291.97
2023-01-07T14:07:15.106Z,100293.13
2023-01-07T14:09:41.890Z,100291.94
2023-01-07T14:12:20.012Z,100288.28
2023-01-07T14:15:01.618Z,100281.03
2023-01-07T14:17:35.144Z,100273.00
2023-01-07T14:20:08.622Z,100269.34
2023-01-07T14:22:37.399Z,100269.72
2023-01-07T14:25:14.794Z,100280.91
2023-01-07T14:27:50.602Z,100267.25
2023-01-07T14:30:28.521Z,100265.59
2023-01-07T14:33:06.031Z,100258.00
2023-01-07T14:35:42.919Z,100261.13
2023-01-07T14:38:27.934Z,100261.94
2023-01-07T14:41:03.356Z,100253.47
2023-01-07T14:43:51.579Z,100249.47
2023-01-07T14:46:21.044Z,100244.22
2023-01-07T14:49:06.323Z,100245.75
2023-01-07T14:51:44.885Z,100238.09
2023-01-07T14:54:30.132Z,100230.50
2023-01-07T14:56:58.985Z,100230.44
2023-01-07T14:59:40.939Z,100234.47
2023-01-07T15:02:33.870Z,100233.63
2023-01-07T15:05:07.593Z,100234.38
2023-01-07T15:07:36.551Z,100225.97
2023-01-07T15:10:42.573Z,100212.72
2023-01-07T15:13:32.386Z,100221.47
2023-01-07T15:16:03.545Z,100217.03
2023-01-07T15:18:34.326Z,100218.97
2023-01-07T15:21:09.407Z,100215.34
2023-01-07T15:23:44.834Z,100215.31
2023-01-07T15:26:15.798Z,100210.09
2023-01-07T15:28:55.754Z,100206.44
2023-01-07T15:31:26.803Z,100196.03
2023-01-07T15:34:04.943Z,100184.38
2023-01-07T15:36:31.823Z,100190.72
2023-01-07T15:38:59.768Z,100185.09
2023-01-07T15:41:28.368Z,100188.69
2023-01-07T15:43:56.018Z,100191.03
2023-01-07T15:46:25.547Z,100176.19
2023-01-07T15:49:10.479Z,100180.59
2023-01-07T15:51:40.883Z,100174.13
2023-01-07T15:54:21.292Z,100174.88
2023-01-07T15:56:50.106Z,100173.69
2023-01-07T15:59:21.033Z,100182.84
2023-01-07T16:01:50.634Z,100173.22
2023-01-07T16:04:29.189Z,100176.38
2023-01-07T16:06:57.003Z,100165.16
2023-01-07T16:09:24.884Z,100178.69
2023-01-07T16:11:51.331Z,100166.28
2023-01-07T16:14:19.914Z,100162.25
2023-01-07T16:16:46.353Z,100165.44
2023-01-07T16:19:18.237Z,100158.59
2023-01-07T16:21:54.120Z,100157.75
2023-01-07T16:24:20.449Z,100152.53
2023-01-07T16:26:51.885Z,100148.53
2023-01-07T16:29:20.368Z,100136.91
2023-01-07T16:31:47.162Z,100137.66
2023-01-07T16:34:36.447Z,100145.63
2023-01-07T16:37:04.555Z,100143.22
2023-01-07T16:39:35.460Z,100134.38
2023-01-07T16:42:23.208Z,100127.59
2023-01-07T16:44:53.113Z,100122.72
2023-01-07T16:47:26.947Z,100128.72
2023-01-07T16:49:53.400Z,100132.72
2023-01-07T16:52:22.760Z,100116.69
2023-01-07T16:54:51.878Z,100127.47
2023-01-07T16:57:21.237Z,100119.44
2023-01-07T16:59:53.792Z,100119.44
2023-01-07T17:02:41.892Z,100117.03
2023-01-07T17:05:11.330Z,100114.63
2023-01-07T17:07:38.477Z,100112.19
2023-01-07T17:10:05.415Z,100108.56
2023-01-07T17:12:39.075Z,100106.16
2023-01-07T17:15:27.919Z,100099.38
2023-01-07T17:18:19.659Z,100088.59
2023-01-07T17:20:51.870Z,100085.00
2023-01-07T17:23:27.674Z,100081.00
2023-01-07T17:26:03.266Z,100083.00
2023-01-07T17:28:31.364Z,100085.00
2023-01-07T17:30:57.647Z,100074.97
2023-01-07T17:33:25.163Z,100085.00
2023-01-07T17:35:52.157Z,100080.56
2023-01-07T17:38:19.022Z,100081.75
2023-01-07T17:40:45.703Z,100071.38
2023-01-07T17:43:35.748Z,100076.97
2023-01-07T17:46:06.485Z,100073.34
2023-01-07T17:48:34.810Z,100073.34
2023-01-07T17:51:04.599Z,100073.34
2023-01-07T17:53:36.810Z,100070.56
2023-01-07T17:56:07.681Z,100069.38
2023-01-07T17:58:35.204Z,100070.19
2023-01-07T18:01:02.768Z,100069.81
2023-01-07T18:03:29.598Z,100064.22
2023-01-07T18:05:56.390Z,100061.41
2023-01-07T18:08:22.824Z,100053.44
2023-01-07T18:11:09.519Z,100062.22
2023-01-07T18:13:36.001Z,100065.81
2023-01-07T18:16:02.627Z,100068.22
2023-01-07T18:18:30.371Z,100071.81
2023-01-07T18:20:57.774Z,100060.63
2023-01-07T18:23:27.327Z,100065.03
2023-01-07T18:25:55.860Z,100074.22
2023-01-07T18:28:22.355Z,100065.03
2023-01-07T18:30:49.344Z,100061.84
2023-01-07T18:33:15.827Z,100058.22
2023-01-07T18:35:42.210Z,100056.69
2023-01-07T18:38:15.725Z,100058.66
2023-01-07T18:40:42.808Z,100054.28
2023-01-07T18:43:13.278Z,100056.28
2023-01-07T18:45:40.414Z,100035.94
2023-01-07T18:48:07.097Z,100041.53
2023-01-07T18:50:33.594Z,100038.75
2023-01-07T18:53:00.038Z,100030.00
2023-01-07T18:55:29.636Z,100021.63
2023-01-07T18:57:56.379Z,100021.25
2023-01-07T19:00:23.144Z,100027.69
2023-01-07T19:02:49.711Z,100021.31
2023-01-07T19:05:16.317Z,100014.53
2023-01-07T19:07:45.527Z,100009.38
2023-01-07T19:10:12.175Z,99996.97
2023-01-07T19:12:38.823Z,99994.97
2023-01-07T19:15:05.344Z,99995.78
2023-01-07T19:17:31.719Z,99977.38
2023-01-07T19:19:57.961Z,99969.78
2023-01-07T19:22:24.454Z,99966.63
2023-01-07T19:24:51.081Z,99969.78
2023-01-07T19:27:18.812Z,99966.22
2023-01-07T19:29:45.043Z,99959.03
2023-01-07T19:32:12.696Z,99955.06
2023-01-07T19:34:38.973Z,99949.13
2023-01-07T19:37:06.984Z,99952.34
2023-01-07T19:39:33.686Z,99950.44
2023-01-07T19:42:00.637Z,99948.06
2023-01-07T19:44:26.916Z,99963.69
2023-01-07T19:46:53.289Z,99958.50
2023-01-07T19:49:19.700Z,99949.72
2023-01-07T19:51:46.009Z,99950.16
2023-01-07T19:54:16.772Z,99946.56
2023-01-07T19:56:43.787Z,99953.41
2023-01-07T19:59:10.758Z,99953.78
2023-01-07T20:01:39.026Z,99965.44
2023-01-07T20:04:06.851Z,99939.81
2023-01-07T20:06:35.536Z,99917.03
2023-01-07T20:09:07.868Z,99922.25
2023-01-07T20:11:34.340Z,99912.66
2023-01-07T20:14:00.633Z,99921.44
2023-01-07T20:16:27.737Z,99923.06
2023-01-07T20:18:54.971Z,99928.28
2023-01-07T20:21:23.210Z,99941.09
2023-01-07T20:23:49.823Z,99922.28
2023-01-07T20:26:18.144Z,99929.47
2023-01-07T20:28:45.881Z,99934.72
2023-01-07T20:31:16.439Z,99939.09
2023-01-07T20:33:45.584Z,99932.72
2023-01-07T20:36:13.274Z,99935.50
2023-01-07T20:38:39.753Z,99935.09
2023-01-07T20:41:06.733Z,99942.72
2023-01-07T20:43:33.859Z,99939.91
2023-01-07T20:46:01.118Z,99946.72
2023-01-07T20:48:27.965Z,99948.72
2023-01-07T20:50:54.543Z,99949.50
2023-01-07T20:53:21.255Z,99945.53
2023-01-07T20:55:49.278Z,99951.53
2023-01-07T20:58:15.581Z,99955.94
2023-01-07T21:00:42.013Z,99959.53
2023-01-07T21:03:08.407Z,99959.97
2023-01-07T21:05:37.036Z,99946.38
2023-01-07T21:08:03.530Z,99947.97
2023-01-07T21:10:29.998Z,99949.59
2023-01-07T21:12:56.392Z,99946.00
2023-01-07T21:15:23.297Z,99946.38
2023-01-07T21:17:52.902Z,99942.78
2023-01-07T21:20:19.465Z,99937.97
2023-01-07T21:22:47.680Z,99940.78
2023-01-07T21:25:15.434Z,99921.19
2023-01-07T21:27:43.612Z,99923.19
2023-01-07T21:30:14.362Z,99925.19
2023-01-07T21:32:41.500Z,99919.16
2023-01-07T21:35:12.205Z,99923.59
2023-01-07T21:37:38.933Z,99923.94
2023-01-07T21:40:06.165Z,99917.56
2023-01-07T21:42:32.748Z,99920.34
2023-01-07T21:44:59.491Z,99917.94
2023-01-07T21:47:25.732Z,99910.31
2023-01-07T21:49:53.010Z,99923.13
2023-01-07T21:52:19.456Z,99909.09
2023-01-07T21:54:45.714Z,99916.28
2023-01-07T21:57:12.220Z,99909.88
2023-01-07T21:59:39.661Z,99908.66
2023-01-07T22:02:08.332Z,99905.03
2023-01-07T22:04:34.879Z,99913.06
2023-01-07T22:07:01.175Z,99913.06
2023-01-07T22:09:27.860Z,99915.41
2023-01-07T22:11:56.515Z,99907.81
2023-01-07T22:14:24.489Z,99905.03
2023-01-07T22:16:51.008Z,99912.63
2023-01-07T22:19:17.482Z,99922.22
2023-01-07T22:21:43.742Z,99915.81
2023-01-07T22:24:10.163Z,99921.44
2023-01-07T22:26:36.445Z,99906.22
2023-01-07T22:29:06.324Z,99909.41
2023-01-07T22:31:38.429Z,99908.25
2023-01-07T22:34:06.151Z,99903.03
2023-01-07T22:36:35.217Z,99905.84
2023-01-07T22:39:09.779Z,99911.03
2023-01-07T22:41:37.809Z,99910.69
2023-01-07T22:44:08.853Z,99902.28
2023-01-07T22:46:37.569Z,99912.28
2023-01-07T22:49:04.109Z,99909.47
2023-01-07T22:51:34.775Z,99914.69
2023-01-07T22:54:01.830Z,99913.06
2023-01-07T22:56:28.214Z,99918.69
2023-01-07T22:58:54.512Z,99906.66
2023-01-07T23:01:20.867Z,99907.47
2023-01-07T23:03:47.271Z,99911.50
2023-01-07T23:06:15.531Z,99906.28
2023-01-07T23:08:41.865Z,99905.06
2023-01-07T23:11:08.452Z,99891.50
2023-01-07T23:13:34.957Z,99889.91
2023-01-07T23:16:02.273Z,99901.91
2023-01-07T23:18:29.089Z,99885.50
2023-01-07T23:20:58.295Z,99879.88
2023-01-07T23:23:24.640Z,99887.50
2023-01-07T23:25:50.947Z,99880.28
2023-01-07T23:28:18.225Z,99869.47
2023-01-07T23:30:44.645Z,99869.88
2023-01-07T23:33:11.519Z,99867.88
2023-01-07T23:35:38.821Z,99868.69
2023-01-07T23:38:05.404Z,99868.28
2023-01-07T23:40:31.944Z,99864.69
2023-01-07T23:42:58.593Z,99863.88
2023-01-07T23:45:25.057Z,99867.88
2023-01-07T23:47:51.478Z,99861.47
2023-01-07T23:50:17.839Z,99861.47
2023-01-07T23:52:44.274Z,99850.28
2023-01-07T23:55:10.613Z,99859.47
2023-01-07T23:57:36.829Z,99859.47
